Time;durP1;ratioP1;P1;durP2;ratioP2;P2;SDS_P1;SDS_P2;PMS_P1;PMS_P2;Temp;Humidity;BMP_temperature;BMP_pressure;BME280_temperature;BME280_humidity;BME280_pressure;Samples;Min_cycle;Max_cycle;Signal;HPM_P1;HPM_P2
2022/10/21 00:00:32;;;;;;;;;;;;;;;;;;5054327;28;861;-73
2022/10/21 00:02:58;;;;;;;;;;;;;;;;;;5053652;28;1127;-73
2022/10/21 00:05:24;;;;;;;;;;;;;;;;;;5054118;28;1387;-75
2022/10/21 00:07:50;;;;;;;;;;;;;;;;;;5053997;28;901;-74
2022/10/21 00:10:16;;;;;;;;;;;;;;;;;;5054171;28;1968;-74
2022/10/21 00:12:44;;;;;;;;;;;;;;;;;;5053776;28;1059;-74
2022/10/21 00:15:10;;;;;;;;;;;;;;;;;;5053784;28;1349;-74
2022/10/21 00:17:37;;;;;;;;;;;;;;;;;;5053982;28;808;-74
2022/10/21 00:20:03;;;;;;;;;;;;;;;;;;5053868;28;838;-73
2022/10/21 00:22:29;;;;;;;;;;;;;;;;;;5053703;28;1052;-73
2022/10/21 00:24:56;;;;;;;;;;;;;;;;;;5053638;28;1389;-73
2022/10/21 00:27:22;;;;;;;;;;;;;;;;;;5053914;28;1393;-73
2022/10/21 00:29:49;;;;;;;;;;;;;;;;;;5035708;28;1938;-74
2022/10/21 00:32:16;;;;;;;;;;;;;;;;;;5053322;28;1104;-74
2022/10/21 00:34:42;;;;;;;;;;;;;;;;;;5053356;28;1300;-73
2022/10/21 00:37:08;;;;;;;;;;;;;;;;;;5053484;28;716;-74
2022/10/21 00:39:34;;;;;;;;;;;;;;;;;;5053320;28;1511;-74
2022/10/21 00:42:01;;;;;;;;;;;;;;;;;;5053354;28;762;-74
2022/10/21 00:44:27;;;;;;;;;;;;;;;;;;5053328;28;1321;-74
2022/10/21 00:46:55;;;;;;;;;;;;;;;;;;5053324;28;1080;-73
2022/10/21 00:49:23;;;;;;;;;;;;;;;;;;5053367;28;1981;-74
2022/10/21 00:51:50;;;;;;;;;;;;;;;;;;5034982;28;1301;-75
2022/10/21 00:54:16;;;;;;;;;;;;;;;;;;5053242;28;1274;-74
2022/10/21 00:56:42;;;;;;;;;;;;;;;;;;5053025;28;1059;-74
2022/10/21 00:59:09;;;;;;;;;;;;;;;;;;5052553;28;1045;-74
2022/10/21 01:01:35;;;;;;;;;;;;;;;;;;5052812;28;775;-74
2022/10/21 01:04:04;;;;;;;;;;;;;;;;;;5052972;28;1420;-73
2022/10/21 01:06:30;;;;;;;;;;;;;;;;;;5053068;28;1068;-74
2022/10/21 01:08:56;;;;;;;;;;;;;;;;;;5052834;28;1906;-74
2022/10/21 01:11:23;;;;;;;;;;;;;;;;;;5052982;28;1128;-74
2022/10/21 01:14:03;;;;;;;;;;;;;;;;;;5034672;28;1286;-74
2022/10/21 01:16:30;;;;;;;;;;;;;;;;;;5053080;28;1056;-76
2022/10/21 01:18:57;;;;;;;;;;;;;;;;;;5052933;28;953;-73
2022/10/21 01:21:27;;;;;;;;;;;;;;;;;;5052615;28;1004;-74
2022/10/21 01:24:11;;;;;;;;;;;;;;;;;;5052491;28;1376;-74
2022/10/21 01:26:43;;;;;;;;;;;;;;;;;;5035244;28;1357;-75
2022/10/21 01:29:15;;;;;;;;;;;;;;;;;;5052874;28;1902;-74
2022/10/21 01:31:43;;;;;;;;;;;;;;;;;;5052528;28;1067;-73
2022/10/21 01:34:09;;;;;;;;;;;;;;;;;;5052493;28;1309;-74
2022/10/21 01:36:36;;;;;;;;;;;;;;;;;;5052752;28;881;-75
2022/10/21 01:39:06;;;;;;;;;;;;;;;;;;5034905;28;1253;-74
2022/10/21 01:41:35;;;;;;;;;;;;;;;;;;5052440;28;1102;-73
2022/10/21 01:44:04;;;;;;;;;;;;;;;;;;5052345;28;1392;-74
2022/10/21 01:46:31;;;;;;;;;;;;;;;;;;5052717;28;1122;-74
2022/10/21 01:49:00;;;;;;;;;;;;;;;;;;5052457;28;1004;-74
2022/10/21 01:51:26;;;;;;;;;;;;;;;;;;5034144;28;1918;-75
2022/10/21 01:53:53;;;;;;;;;;;;;;;;;;5052237;28;1450;-73
2022/10/21 01:56:19;;;;;;;;;;;;;;;;;;5034620;28;1297;-74
2022/10/21 01:58:45;;;;;;;;;;;;;;;;;;5034418;28;1356;-74
2022/10/21 02:01:11;;;;;;;;;;;;;;;;;;5052277;28;949;-72
2022/10/21 02:03:38;;;;;;;;;;;;;;;;;;5034009;28;1385;-73
2022/10/21 02:06:06;;;;;;;;;;;;;;;;;;5052081;28;1072;-74
2022/10/21 02:08:32;;;;;;;;;;;;;;;;;;5052182;28;1087;-73
2022/10/21 02:11:00;;;;;;;;;;;;;;;;;;5055752;28;1974;-73
2022/10/21 02:13:27;;;;;;;;;;;;;;;;;;5058453;28;1391;-74
2022/10/21 02:15:53;;;;;;;;;;;;;;;;;;5040864;28;1098;-74
2022/10/21 02:18:20;;;;;;;;;;;;;;;;;;5058767;28;982;-74
2022/10/21 02:20:46;;;;;;;;;;;;;;;;;;5040509;28;1109;-74
2022/10/21 02:23:15;;;;;;;;;;;;;;;;;;5040556;28;1252;-74
2022/10/21 02:25:42;;;;;;;;;;;;;;;;;;5058407;28;1389;-73
2022/10/21 02:28:08;;;;;;;;;;;;;;;;;;5058631;28;1075;-76
2022/10/21 02:30:35;;;;;;;;;;;;;;;;;;5058651;28;1914;-74
2022/10/21 02:33:03;;;;;;;;;;;;;;;;;;5058278;28;1067;-74
2022/10/21 02:35:30;;;;;;;;;;;;;;;;;;5039948;28;2203;-74
2022/10/21 02:37:58;;;;;;;;;;;;;;;;;;5058101;28;1305;-73
2022/10/21 02:40:27;;;;;;;;;;;;;;;;;;5040041;28;1484;-74
2022/10/21 02:42:54;;;;;;;;;;;;;;;;;;5058147;28;1088;-73
2022/10/21 02:45:20;;;;;;;;;;;;;;;;;;5058387;28;1352;-73
2022/10/21 02:47:47;;;;;;;;;;;;;;;;;;5040520;28;1257;-73
2022/10/21 02:50:13;;;;;;;;;;;;;;;;;;5058394;28;1914;-74
2022/10/21 02:52:39;;;;;;;;;;;;;;;;;;5058318;28;1127;-73
2022/10/21 02:55:06;;;;;;;;;;;;;;;;;;5040351;28;1284;-73
2022/10/21 02:57:33;;;;;;;;;;;;;;;;;;5040582;28;1429;-73
2022/10/21 02:59:59;;;;;;;;;;;;;;;;;;5058231;28;1064;-74
2022/10/21 03:02:26;;;;;;;;;;;;;;;;;;5040170;28;1255;-74
2022/10/21 03:04:52;;;;;;;;;;;;;;;;;;5040156;28;1290;-74
2022/10/21 03:07:18;;;;;;;;;;;;;;;;;;5058213;28;1115;-74
2022/10/21 03:09:44;;;;;;;;;;;;;;;;;;5058157;28;1906;-74
2022/10/21 03:12:10;;;;;;;;;;;;;;;;;;5058043;28;1076;-74
2022/10/21 03:14:38;;;;;;;;;;;;;;;;;;5040182;28;1369;-73
2022/10/21 03:17:04;;;;;;;;;;;;;;;;;;5058253;28;778;-74
2022/10/21 03:19:30;;;;;;;;;;;;;;;;;;5040279;28;1208;-74
2022/10/21 03:21:56;;;;;;;;;;;;;;;;;;5056050;28;917;-75
2022/10/21 03:24:23;;;;;;;;;;;;;;;;;;5055117;28;1363;-75
2022/10/21 03:26:49;;;;;;;;;;;;;;;;;;5054974;28;1079;-74
2022/10/21 03:29:15;;;;;;;;;;;;;;;;;;5055010;28;861;-75
2022/10/21 03:31:42;;;;;;;;;;;;;;;;;;5054535;28;1968;-75
2022/10/21 03:34:09;;;;;;;;;;;;;;;;;;5054703;28;1416;-73
2022/10/21 03:36:35;;;;;;;;;;;;;;;;;;5054904;28;1107;-74
2022/10/21 03:39:01;;;;;;;;;;;;;;;;;;5054726;28;990;-74
2022/10/21 03:41:27;;;;;;;;;;;;;;;;;;5036702;28;1334;-74
2022/10/21 03:43:53;;;;;;;;;;;;;;;;;;5054593;28;1299;-74
2022/10/21 03:46:20;;;;;;;;;;;;;;;;;;5054756;28;1064;-74
2022/10/21 03:48:47;;;;;;;;;;;;;;;;;;5054693;28;980;-74
2022/10/21 03:51:13;;;;;;;;;;;;;;;;;;5054565;28;1979;-74
2022/10/21 03:53:39;;;;;;;;;;;;;;;;;;5054035;28;1410;-75
2022/10/21 03:56:06;;;;;;;;;;;;;;;;;;5054408;28;909;-74
2022/10/21 03:58:34;;;;;;;;;;;;;;;;;;5054412;28;1080;-74
2022/10/21 04:01:00;;;;;;;;;;;;;;;;;;5036542;28;1383;-73
2022/10/21 04:03:26;;;;;;;;;;;;;;;;;;5036131;28;1294;-73
2022/10/21 04:05:54;;;;;;;;;;;;;;;;;;5054242;28;1128;-74
2022/10/21 04:08:20;;;;;;;;;;;;;;;;;;5054233;28;993;-75
2022/10/21 04:10:47;;;;;;;;;;;;;;;;;;5054265;28;1967;-74
2022/10/21 04:13:13;;;;;;;;;;;;;;;;;;5053774;28;1083;-74
2022/10/21 04:15:39;;;;;;;;;;;;;;;;;;5053974;28;1371;-74
2022/10/21 04:18:06;;;;;;;;;;;;;;;;;;5054463;28;1480;-73
2022/10/21 04:20:32;;;;;;;;;;;;;;;;;;5071084;28;1506;-74
2022/10/21 04:22:59;;;;;;;;;;;;;;;;;;5066616;28;1234;-74
2022/10/21 04:25:25;;;;;;;;;;;;;;;;;;5053719;28;1290;-74
2022/10/21 04:27:52;;;;;;;;;;;;;;;;;;5053589;28;1048;-74
2022/10/21 04:30:18;;;;;;;;;;;;;;;;;;5053613;28;1906;-73
2022/10/21 04:32:44;;;;;;;;;;;;;;;;;;5054424;28;1460;-71
2022/10/21 04:35:10;;;;;;;;;;;;;;;;;;5074705;22;4013;-74
2022/10/21 04:37:38;;;;;;;;;;;;;;;;;;5053310;28;1155;-74
2022/10/21 04:40:07;;;;;;;;;;;;;;;;;;5052193;28;1422;-74
2022/10/21 04:42:33;;;;;;;;;;;;;;;;;;5055048;28;1230;-74
2022/10/21 04:44:59;;;;;;;;;;;;;;;;;;5053033;28;1445;-74
2022/10/21 04:47:26;;;;;;;;;;;;;;;;;;5059727;28;1502;-74
2022/10/21 04:49:52;;;;;;;;;;;;;;;;;;5059212;28;1463;-74
2022/10/21 04:52:18;;;;;;;;;;;;;;;;;;5068852;28;1906;-73
2022/10/21 04:54:44;;;;;;;;;;;;;;;;;;5053547;28;1083;-73
2022/10/21 04:57:12;;;;;;;;;;;;;;;;;;5052538;28;1447;-72
2022/10/21 04:59:38;;;;;;;;;;;;;;;;;;5051920;28;1247;-73
2022/10/21 05:02:04;;;;;;;;;;;;;;;;;;5051809;28;1326;-73
2022/10/21 05:04:30;;;;;;;;;;;;;;;;;;5053362;28;775;-73
2022/10/21 05:06:57;;;;;;;;;;;;;;;;;;5053281;28;1419;-74
2022/10/21 05:09:23;;;;;;;;;;;;;;;;;;5034154;28;1479;-73
2022/10/21 05:11:49;;;;;;;;;;;;;;;;;;5037817;28;1973;-73
2022/10/21 05:14:17;;;;;;;;;;;;;;;;;;5055136;28;1391;-73
2022/10/21 05:16:43;;;;;;;;;;;;;;;;;;5053614;28;1398;-73
2022/10/21 05:19:10;;;;;;;;;;;;;;;;;;5058021;28;1669;-74
2022/10/21 05:21:36;;;;;;;;;;;;;;;;;;5064373;28;1415;-73
2022/10/21 05:24:03;;;;;;;;;;;;;;;;;;5066294;28;1467;-73
2022/10/21 05:26:29;;;;;;;;;;;;;;;;;;5060291;28;1679;-73
2022/10/21 05:28:56;;;;;;;;;;;;;;;;;;5059816;28;1410;-73
2022/10/21 05:31:23;;;;;;;;;;;;;;;;;;5047708;28;1913;-71
2022/10/21 05:33:49;;;;;;;;;;;;;;;;;;5059776;28;1681;-71
2022/10/21 05:36:16;;;;;;;;;;;;;;;;;;5058441;28;1423;-71
2022/10/21 05:38:42;;;;;;;;;;;;;;;;;;5064544;28;1165;-72
2022/10/21 05:41:09;;;;;;;;;;;;;;;;;;5051613;28;1349;-72
2022/10/21 05:43:36;;;;;;;;;;;;;;;;;;5051605;28;1419;-71
2022/10/21 05:46:02;;;;;;;;;;;;;;;;;;5057446;28;1491;-73
2022/10/21 05:48:29;;;;;;;;;;;;;;;;;;5049894;28;1463;-73
2022/10/21 05:50:56;;;;;;;;;;;;;;;;;;5059014;28;1906;-73
2022/10/21 05:53:22;;;;;;;;;;;;;;;;;;5050388;28;783;-73
2022/10/21 05:55:58;;;;;;;;;;;;;;;;;;5050894;28;1305;-73
2022/10/21 05:58:24;;;;;;;;;;;;;;;;;;5050707;28;960;-73
2022/10/21 06:00:53;;;;;;;;;;;;;;;;;;5050722;28;1072;-74
2022/10/21 06:03:19;;;;;;;;;;;;;;;;;;5050614;28;1076;-73
2022/10/21 06:05:47;;;;;;;;;;;;;;;;;;5051888;28;1404;-73
2022/10/21 06:08:13;;;;;;;;;;;;;;;;;;5052535;28;949;-75
2022/10/21 06:10:39;;;;;;;;;;;;;;;;;;5052328;28;1902;-73
2022/10/21 06:13:05;;;;;;;;;;;;;;;;;;5052320;28;816;-74
2022/10/21 06:15:31;;;;;;;;;;;;;;;;;;5052370;28;1391;-73
2022/10/21 06:17:58;;;;;;;;;;;;;;;;;;5052312;28;890;-72
2022/10/21 06:20:24;;;;;;;;;;;;;;;;;;5052225;28;1156;-73
2022/10/21 06:22:51;;;;;;;;;;;;;;;;;;5050874;28;1212;-73
2022/10/21 06:25:17;;;;;;;;;;;;;;;;;;5052186;28;1392;-72
2022/10/21 06:27:44;;;;;;;;;;;;;;;;;;5052323;28;1119;-72
2022/10/21 06:30:10;;;;;;;;;;;;;;;;;;5051979;28;905;-72
2022/10/21 06:32:36;;;;;;;;;;;;;;;;;;5051951;28;1918;-73
2022/10/21 06:35:03;;;;;;;;;;;;;;;;;;5046373;28;1827;-75
2022/10/21 06:37:29;;;;;;;;;;;;;;;;;;5032327;28;1092;-73
2022/10/21 06:39:56;;;;;;;;;;;;;;;;;;5032435;28;1052;-72
2022/10/21 06:42:23;;;;;;;;;;;;;;;;;;5032123;28;782;-73
2022/10/21 06:44:49;;;;;;;;;;;;;;;;;;5032087;28;1302;-73
2022/10/21 06:47:16;;;;;;;;;;;;;;;;;;5032544;28;1111;-72
2022/10/21 06:49:42;;;;;;;;;;;;;;;;;;5032405;28;1064;-73
2022/10/21 06:52:08;;;;;;;;;;;;;;;;;;5032390;28;1965;-72
2022/10/21 06:54:34;;;;;;;;;;;;;;;;;;5032263;28;1111;-73
2022/10/21 06:57:02;;;;;;;;;;;;;;;;;;5032610;28;1276;-74
2022/10/21 06:59:28;;;;;;;;;;;;;;;;;;5035713;28;1047;-73
2022/10/21 07:01:54;;;;;;;;;;;;;;;;;;5035708;28;858;-73
2022/10/21 07:04:20;;;;;;;;;;;;;;;;;;5035602;28;1087;-73
2022/10/21 07:06:47;;;;;;;;;;;;;;;;;;5035708;28;1410;-73
2022/10/21 07:09:14;;;;;;;;;;;;;;;;;;5035853;28;858;-72
2022/10/21 07:11:40;;;;;;;;;;;;;;;;;;5034014;28;1977;-74
2022/10/21 07:14:07;;;;;;;;;;;;;;;;;;5034365;28;1072;-75
2022/10/21 07:16:34;;;;;;;;;;;;;;;;;;5034085;28;1505;-73
2022/10/21 07:19:00;;;;;;;;;;;;;;;;;;5035567;28;1115;-73
2022/10/21 07:21:28;;;;;;;;;;;;;;;;;;5035223;28;1004;-73
2022/10/21 07:23:54;;;;;;;;;;;;;;;;;;5035376;28;1134;-72
2022/10/21 07:26:21;;;;;;;;;;;;;;;;;;5033945;28;1399;-73
2022/10/21 07:28:47;;;;;;;;;;;;;;;;;;5035243;28;1123;-73
2022/10/21 07:31:15;;;;;;;;;;;;;;;;;;5033968;28;1918;-74
2022/10/21 07:33:41;;;;;;;;;;;;;;;;;;5034180;28;1286;-73
2022/10/21 07:36:09;;;;;;;;;;;;;;;;;;5034980;28;1364;-71
2022/10/21 07:38:35;;;;;;;;;;;;;;;;;;5034210;28;1104;-73
2022/10/21 07:41:02;;;;;;;;;;;;;;;;;;5035165;28;1012;-73
2022/10/21 07:43:28;;;;;;;;;;;;;;;;;;5035252;28;933;-73
2022/10/21 07:45:54;;;;;;;;;;;;;;;;;;5035113;28;1345;-72
2022/10/21 07:48:22;;;;;;;;;;;;;;;;;;5033765;28;1159;-73
2022/10/21 07:50:48;;;;;;;;;;;;;;;;;;5035255;28;1052;-73
2022/10/21 07:53:14;;;;;;;;;;;;;;;;;;5033279;28;2001;-72
2022/10/21 07:55:41;;;;;;;;;;;;;;;;;;5034902;28;1388;-74
2022/10/21 07:58:07;;;;;;;;;;;;;;;;;;5033448;28;1081;-72
2022/10/21 08:00:33;;;;;;;;;;;;;;;;;;5034858;28;933;-73
2022/10/21 08:02:59;;;;;;;;;;;;;;;;;;5033327;28;1120;-73
2022/10/21 08:05:27;;;;;;;;;;;;;;;;;;5034529;28;1246;-73
2022/10/21 08:07:53;;;;;;;;;;;;;;;;;;5034508;28;1008;-73
2022/10/21 08:10:19;;;;;;;;;;;;;;;;;;5034659;28;1115;-73
2022/10/21 08:12:45;;;;;;;;;;;;;;;;;;5034224;28;1990;-73
2022/10/21 08:15:12;;;;;;;;;;;;;;;;;;5034469;28;1375;-74
2022/10/21 08:17:38;;;;;;;;;;;;;;;;;;5034446;28;1056;-73
2022/10/21 08:20:04;;;;;;;;;;;;;;;;;;5034580;28;945;-73
2022/10/21 08:22:32;;;;;;;;;;;;;;;;;;5033962;28;1115;-73
2022/10/21 08:24:58;;;;;;;;;;;;;;;;;;5032995;28;1301;-73
2022/10/21 08:27:24;;;;;;;;;;;;;;;;;;5034477;28;839;-73
2022/10/21 08:29:50;;;;;;;;;;;;;;;;;;5034196;28;1127;-73
2022/10/21 08:32:17;;;;;;;;;;;;;;;;;;5033903;28;1910;-71
2022/10/21 08:34:43;;;;;;;;;;;;;;;;;;5034086;28;1088;-73
2022/10/21 08:37:10;;;;;;;;;;;;;;;;;;5032810;28;1468;-74
2022/10/21 08:39:37;;;;;;;;;;;;;;;;;;5034258;28;993;-73
2022/10/21 08:42:08;;;;;;;;;;;;;;;;;;5032541;28;1156;-74
2022/10/21 08:44:39;;;;;;;;;;;;;;;;;;5034165;28;845;-74
2022/10/21 08:47:06;;;;;;;;;;;;;;;;;;5036185;28;1607;-72
2022/10/21 08:49:35;;;;;;;;;;;;;;;;;;5034004;28;1063;-73
2022/10/21 08:52:03;;;;;;;;;;;;;;;;;;5032178;28;1988;-73
2022/10/21 08:54:31;;;;;;;;;;;;;;;;;;5032410;28;1342;-73
2022/10/21 08:56:59;;;;;;;;;;;;;;;;;;5033588;28;1237;-74
2022/10/21 08:59:25;;;;;;;;;;;;;;;;;;5033507;28;883;-73
2022/10/21 09:01:54;;;;;;;;;;;;;;;;;;5033473;28;941;-73
2022/10/21 09:04:22;;;;;;;;;;;;;;;;;;5033433;28;807;-73
2022/10/21 09:06:50;;;;;;;;;;;;;;;;;;5032209;28;1447;-74
2022/10/21 09:09:17;;;;;;;;;;;;;;;;;;5032083;28;1276;-73
2022/10/21 09:11:49;;;;;;;;;;;;;;;;;;5033119;28;1898;-74
2022/10/21 09:14:32;;;;;;;;;;;;;;;;;;5033470;28;774;-73
2022/10/21 09:17:00;;;;;;;;;;;;;;;;;;5033353;28;1753;-73
2022/10/21 09:19:31;;;;;;;;;;;;;;;;;;5032885;28;1059;-73
2022/10/21 09:22:03;;;;;;;;;;;;;;;;;;5031669;28;1194;-73
2022/10/21 09:24:31;;;;;;;;;;;;;;;;;;5032969;28;1134;-73
2022/10/21 09:26:57;;;;;;;;;;;;;;;;;;5031908;28;1290;-73
2022/10/21 09:29:26;;;;;;;;;;;;;;;;;;5032990;28;1036;-73
2022/10/21 09:31:53;;;;;;;;;;;;;;;;;;5032837;28;1971;-73
2022/10/21 09:34:20;;;;;;;;;;;;;;;;;;5031593;28;2163;-73
2022/10/21 09:36:47;;;;;;;;;;;;;;;;;;5032775;28;1329;-73
2022/10/21 09:39:14;;;;;;;;;;;;;;;;;;5031662;28;1291;-73
2022/10/21 09:41:41;;;;;;;;;;;;;;;;;;5032453;28;1059;-73
2022/10/21 09:44:10;;;;;;;;;;;;;;;;;;5032874;28;651;-74
2022/10/21 09:46:37;;;;;;;;;;;;;;;;;;5031677;28;1399;-72
2022/10/21 09:49:04;;;;;;;;;;;;;;;;;;5032917;28;1151;-72
2022/10/21 09:51:31;;;;;;;;;;;;;;;;;;5031321;28;1263;-74
2022/10/21 09:53:58;;;;;;;;;;;;;;;;;;5031581;28;1906;-73
2022/10/21 09:56:25;;;;;;;;;;;;;;;;;;5031668;28;1414;-75
2022/10/21 09:58:52;;;;;;;;;;;;;;;;;;5032755;28;801;-73
2022/10/21 10:01:19;;;;;;;;;;;;;;;;;;5032401;28;886;-73
2022/10/21 10:03:47;;;;;;;;;;;;;;;;;;5032761;28;1052;-73
2022/10/21 10:06:14;;;;;;;;;;;;;;;;;;5032269;28;1367;-73
2022/10/21 10:08:41;;;;;;;;;;;;;;;;;;5032730;28;873;-73
2022/10/21 10:11:15;;;;;;;;;;;;;;;;;;5032568;28;1108;-74
2022/10/21 10:13:42;;;;;;;;;;;;;;;;;;5031441;28;1954;-73
2022/10/21 10:16:13;;;;;;;;;;;;;;;;;;5032361;28;1281;-73
2022/10/21 10:18:39;;;;;;;;;;;;;;;;;;5032651;28;951;-73
2022/10/21 10:21:09;;;;;;;;;;;;;;;;;;5032526;28;906;-72
2022/10/21 10:23:42;;;;;;;;;;;;;;;;;;5032004;28;882;-73
2022/10/21 10:26:08;;;;;;;;;;;;;;;;;;5031098;28;1300;-73
2022/10/21 10:28:34;;;;;;;;;;;;;;;;;;5032411;28;1076;-71
2022/10/21 10:31:01;;;;;;;;;;;;;;;;;;5032883;28;1064;-73
2022/10/21 10:33:28;;;;;;;;;;;;;;;;;;5036074;28;1973;-74
2022/10/21 10:35:55;;;;;;;;;;;;;;;;;;5036300;28;1321;-73
2022/10/21 10:38:24;;;;;;;;;;;;;;;;;;5082807;22;3723;-71
2022/10/21 10:40:50;;;;;;;;;;;;;;;;;;5075913;28;1082;-71
2022/10/21 10:43:20;;;;;;;;;;;;;;;;;;5075908;28;1130;-72
2022/10/21 10:45:47;;;;;;;;;;;;;;;;;;5076161;28;909;-73
2022/10/21 10:48:17;;;;;;;;;;;;;;;;;;5076055;28;1328;-71
2022/10/21 10:50:45;;;;;;;;;;;;;;;;;;5076019;28;1051;-71
2022/10/21 10:53:23;;;;;;;;;;;;;;;;;;5047881;28;1961;-71
2022/10/21 10:55:51;;;;;;;;;;;;;;;;;;5035658;28;825;-71
2022/10/21 10:58:18;;;;;;;;;;;;;;;;;;5035814;28;1293;-74
2022/10/21 11:00:44;;;;;;;;;;;;;;;;;;5035463;28;1118;-72
2022/10/21 11:03:13;;;;;;;;;;;;;;;;;;5035425;28;921;-71
2022/10/21 11:05:39;;;;;;;;;;;;;;;;;;5034095;28;1189;-72
2022/10/21 11:08:06;;;;;;;;;;;;;;;;;;5035642;28;1282;-71
2022/10/21 11:10:34;;;;;;;;;;;;;;;;;;5035449;28;1112;-72
2022/10/21 11:13:01;;;;;;;;;;;;;;;;;;5035119;28;1957;-73
2022/10/21 11:15:30;;;;;;;;;;;;;;;;;;5035583;28;1056;-71
2022/10/21 11:17:57;;;;;;;;;;;;;;;;;;5035171;28;1285;-71
2022/10/21 11:20:25;;;;;;;;;;;;;;;;;;5034203;28;1088;-74
2022/10/21 11:22:53;;;;;;;;;;;;;;;;;;5034691;28;844;-72
2022/10/21 11:25:20;;;;;;;;;;;;;;;;;;5035292;28;1178;-71
2022/10/21 11:27:51;;;;;;;;;;;;;;;;;;5035024;28;1364;-71
2022/10/21 11:30:18;;;;;;;;;;;;;;;;;;5035274;28;858;-71
2022/10/21 11:32:49;;;;;;;;;;;;;;;;;;5034660;28;1915;-69
2022/10/21 11:35:16;;;;;;;;;;;;;;;;;;5035087;28;1067;-71
2022/10/21 11:37:46;;;;;;;;;;;;;;;;;;5034928;28;1306;-71
2022/10/21 11:40:15;;;;;;;;;;;;;;;;;;5033965;28;1406;-71
2022/10/21 11:42:42;;;;;;;;;;;;;;;;;;5034052;28;1084;-72
2022/10/21 11:45:30;;;;;;;;;;;;;;;;;;5034835;28;1124;-72
2022/10/21 11:47:58;;;;;;;;;;;;;;;;;;5034695;28;1376;-71
2022/10/21 11:50:25;;;;;;;;;;;;;;;;;;5033482;28;1087;-71
2022/10/21 11:52:56;;;;;;;;;;;;;;;;;;5034160;28;1957;-71
2022/10/21 11:55:33;;;;;;;;;;;;;;;;;;5034722;28;1092;-71
2022/10/21 11:58:01;;;;;;;;;;;;;;;;;;5034707;28;1374;-71
2022/10/21 12:00:27;;;;;;;;;;;;;;;;;;5034443;28;1079;-72
2022/10/21 12:03:04;;;;;;;;;;;;;;;;;;5034146;28;1115;-71
2022/10/21 12:05:31;;;;;;;;;;;;;;;;;;5034365;28;917;-72
2022/10/21 12:08:04;;;;;;;;;;;;;;;;;;5034332;28;1383;-70
2022/10/21 12:10:31;;;;;;;;;;;;;;;;;;5034326;28;937;-71
2022/10/21 12:12:58;;;;;;;;;;;;;;;;;;5033883;28;1969;-72
2022/10/21 12:15:25;;;;;;;;;;;;;;;;;;5034360;28;906;-71
2022/10/21 12:17:51;;;;;;;;;;;;;;;;;;5034224;28;1289;-73
2022/10/21 12:20:21;;;;;;;;;;;;;;;;;;5032860;28;1343;-74
2022/10/21 12:22:47;;;;;;;;;;;;;;;;;;5033768;28;1111;-71
2022/10/21 12:25:19;;;;;;;;;;;;;;;;;;5034055;28;824;-71
2022/10/21 12:27:47;;;;;;;;;;;;;;;;;;5033993;28;1383;-71
2022/10/21 12:30:15;;;;;;;;;;;;;;;;;;5033988;28;994;-72
2022/10/21 12:32:43;;;;;;;;;;;;;;;;;;5033558;28;1968;-70
2022/10/21 12:35:11;;;;;;;;;;;;;;;;;;5033696;28;1055;-72
2022/10/21 12:37:43;;;;;;;;;;;;;;;;;;5033584;28;1308;-71
2022/10/21 12:40:10;;;;;;;;;;;;;;;;;;5033788;28;1075;-73
2022/10/21 12:42:36;;;;;;;;;;;;;;;;;;5033617;28;1043;-72
2022/10/21 12:45:02;;;;;;;;;;;;;;;;;;5033741;28;844;-70
2022/10/21 12:47:29;;;;;;;;;;;;;;;;;;5033498;28;1302;-71
2022/10/21 12:50:06;;;;;;;;;;;;;;;;;;5033755;28;981;-72
2022/10/21 12:52:37;;;;;;;;;;;;;;;;;;5033266;28;981;-74
2022/10/21 12:55:06;;;;;;;;;;;;;;;;;;5033388;28;1914;-72
2022/10/21 12:57:33;;;;;;;;;;;;;;;;;;5034451;28;1483;-69
2022/10/21 13:00:13;;;;;;;;;;;;;;;;;;5033767;28;1056;-72
2022/10/21 13:02:55;;;;;;;;;;;;;;;;;;5033097;28;1146;-72
2022/10/21 13:05:33;;;;;;;;;;;;;;;;;;5033176;28;1139;-72
2022/10/21 13:08:22;;;;;;;;;;;;;;;;;;5033199;28;1290;-73
2022/10/21 13:11:04;;;;;;;;;;;;;;;;;;5033019;28;942;-72
2022/10/21 13:13:32;;;;;;;;;;;;;;;;;;5032869;28;1965;-73
2022/10/21 13:15:59;;;;;;;;;;;;;;;;;;5033078;28;755;-72
2022/10/21 13:18:44;;;;;;;;;;;;;;;;;;5032894;28;1370;-72
2022/10/21 13:21:20;;;;;;;;;;;;;;;;;;5033208;28;787;-72
2022/10/21 13:23:51;;;;;;;;;;;;;;;;;;5032596;28;1119;-72
2022/10/21 13:26:22;;;;;;;;;;;;;;;;;;5033053;28;1060;-71
2022/10/21 13:28:57;;;;;;;;;;;;;;;;;;5032861;28;1075;-74
2022/10/21 13:31:23;;;;;;;;;;;;;;;;;;5032836;28;940;-72
2022/10/21 13:33:50;;;;;;;;;;;;;;;;;;5032447;28;1906;-73
2022/10/21 13:36:17;;;;;;;;;;;;;;;;;;5032818;28;938;-71
2022/10/21 13:38:46;;;;;;;;;;;;;;;;;;5032379;28;1467;-72
2022/10/21 13:41:18;;;;;;;;;;;;;;;;;;5032594;28;1087;-72
2022/10/21 13:43:45;;;;;;;;;;;;;;;;;;5032638;28;1020;-72
2022/10/21 13:46:13;;;;;;;;;;;;;;;;;;5031447;28;1096;-72
2022/10/21 13:48:40;;;;;;;;;;;;;;;;;;5032627;28;1286;-72
2022/10/21 13:51:10;;;;;;;;;;;;;;;;;;5032714;28;831;-71
2022/10/21 13:53:42;;;;;;;;;;;;;;;;;;5032025;28;1965;-72
2022/10/21 13:56:08;;;;;;;;;;;;;;;;;;5032534;28;1072;-72
2022/10/21 13:58:37;;;;;;;;;;;;;;;;;;5032181;28;1294;-71
2022/10/21 14:01:07;;;;;;;;;;;;;;;;;;5032431;28;1024;-72
2022/10/21 14:03:35;;;;;;;;;;;;;;;;;;5032026;28;1134;-72
2022/10/21 14:06:01;;;;;;;;;;;;;;;;;;5032077;28;921;-71
2022/10/21 14:08:28;;;;;;;;;;;;;;;;;;5032292;28;1280;-71
2022/10/21 14:10:56;;;;;;;;;;;;;;;;;;5032024;28;1084;-72
2022/10/21 14:13:23;;;;;;;;;;;;;;;;;;5032057;28;1974;-74
2022/10/21 14:15:49;;;;;;;;;;;;;;;;;;5031962;28;1075;-72
2022/10/21 14:18:24;;;;;;;;;;;;;;;;;;5030838;28;1309;-72
2022/10/21 14:20:52;;;;;;;;;;;;;;;;;;5031971;28;929;-71
2022/10/21 14:23:18;;;;;;;;;;;;;;;;;;5031826;28;1127;-71
2022/10/21 14:25:45;;;;;;;;;;;;;;;;;;5032103;28;830;-70
2022/10/21 14:28:12;;;;;;;;;;;;;;;;;;5031934;28;1294;-73
2022/10/21 14:30:39;;;;;;;;;;;;;;;;;;5030788;28;1084;-72
2022/10/21 14:33:07;;;;;;;;;;;;;;;;;;5031768;28;1075;-71
2022/10/21 14:35:33;;;;;;;;;;;;;;;;;;5031834;28;1980;-70
2022/10/21 14:38:01;;;;;;;;;;;;;;;;;;5032173;28;1294;-71
2022/10/21 14:40:30;;;;;;;;;;;;;;;;;;5032184;28;1127;-69
2022/10/21 14:42:57;;;;;;;;;;;;;;;;;;5031700;28;811;-73
2022/10/21 14:45:24;;;;;;;;;;;;;;;;;;5032307;28;874;-71
2022/10/21 14:47:51;;;;;;;;;;;;;;;;;;5034529;28;1590;-74
2022/10/21 14:50:18;;;;;;;;;;;;;;;;;;5032224;28;937;-72
2022/10/21 14:52:45;;;;;;;;;;;;;;;;;;5031679;28;941;-70
2022/10/21 14:55:13;;;;;;;;;;;;;;;;;;5032155;28;2252;-70
2022/10/21 14:57:40;;;;;;;;;;;;;;;;;;5031610;28;1288;-74
2022/10/21 15:00:09;;;;;;;;;;;;;;;;;;5032055;28;1633;-71
2022/10/21 15:02:35;;;;;;;;;;;;;;;;;;5031484;28;917;-71
2022/10/21 15:05:03;;;;;;;;;;;;;;;;;;5031628;28;1064;-72
2022/10/21 15:07:31;;;;;;;;;;;;;;;;;;5031717;28;1285;-72
2022/10/21 15:10:16;;;;;;;;;;;;;;;;;;5031480;28;806;-72
2022/10/21 15:12:43;;;;;;;;;;;;;;;;;;5031431;28;1107;-70
2022/10/21 15:15:28;;;;;;;;;;;;;;;;;;5031377;28;1914;-74
2022/10/21 15:17:58;;;;;;;;;;;;;;;;;;5030509;28;1279;-72
2022/10/21 15:20:25;;;;;;;;;;;;;;;;;;5035474;28;1011;-72
2022/10/21 15:22:52;;;;;;;;;;;;;;;;;;5034821;28;1067;-71
2022/10/21 15:25:19;;;;;;;;;;;;;;;;;;5034119;28;1362;-72
2022/10/21 15:27:45;;;;;;;;;;;;;;;;;;5035038;28;1353;-72
2022/10/21 15:30:15;;;;;;;;;;;;;;;;;;5035185;28;690;-71
2022/10/21 15:32:41;;;;;;;;;;;;;;;;;;5034838;28;949;-72
2022/10/21 15:35:11;;;;;;;;;;;;;;;;;;5034818;28;1907;-69
2022/10/21 15:37:38;;;;;;;;;;;;;;;;;;5034739;28;1309;-71
2022/10/21 15:40:04;;;;;;;;;;;;;;;;;;5034961;28;1087;-72
2022/10/21 15:42:32;;;;;;;;;;;;;;;;;;5034680;28;1131;-72
2022/10/21 15:44:58;;;;;;;;;;;;;;;;;;5034719;28;774;-72
2022/10/21 15:47:24;;;;;;;;;;;;;;;;;;5034631;28;1310;-71
2022/10/21 15:49:51;;;;;;;;;;;;;;;;;;5034576;28;882;-69
2022/10/21 15:52:18;;;;;;;;;;;;;;;;;;5034082;28;1023;-72
2022/10/21 15:54:44;;;;;;;;;;;;;;;;;;5034305;28;1906;-74
2022/10/21 15:57:15;;;;;;;;;;;;;;;;;;5034389;28;1341;-70
2022/10/21 15:59:42;;;;;;;;;;;;;;;;;;5034146;28;1401;-72
2022/10/21 16:02:10;;;;;;;;;;;;;;;;;;5034061;28;1173;-74
2022/10/21 16:04:36;;;;;;;;;;;;;;;;;;5033976;28;779;-72
2022/10/21 16:07:03;;;;;;;;;;;;;;;;;;5034012;28;1293;-74
2022/10/21 16:09:29;;;;;;;;;;;;;;;;;;5034368;28;1055;-72
2022/10/21 16:11:56;;;;;;;;;;;;;;;;;;5034173;28;1055;-73
2022/10/21 16:14:22;;;;;;;;;;;;;;;;;;5034120;28;1914;-72
2022/10/21 16:16:51;;;;;;;;;;;;;;;;;;5032582;28;1365;-72
2022/10/21 16:19:18;;;;;;;;;;;;;;;;;;5034207;28;976;-74
2022/10/21 16:21:44;;;;;;;;;;;;;;;;;;5033624;28;1067;-72
2022/10/21 16:24:10;;;;;;;;;;;;;;;;;;5034170;28;917;-74
2022/10/21 16:26:37;;;;;;;;;;;;;;;;;;5034089;28;1332;-73
2022/10/21 16:29:04;;;;;;;;;;;;;;;;;;5033714;28;774;-72
2022/10/21 16:31:30;;;;;;;;;;;;;;;;;;5033607;28;914;-72
2022/10/21 16:33:57;;;;;;;;;;;;;;;;;;5033700;28;1977;-72
2022/10/21 16:36:24;;;;;;;;;;;;;;;;;;5033550;28;1652;-72
2022/10/21 16:38:51;;;;;;;;;;;;;;;;;;5047896;22;4211;-72
2022/10/21 16:41:18;;;;;;;;;;;;;;;;;;5052896;28;1118;-70
2022/10/21 16:43:44;;;;;;;;;;;;;;;;;;5054014;28;715;-72
2022/10/21 16:46:14;;;;;;;;;;;;;;;;;;5053637;28;573;-72
2022/10/21 16:48:41;;;;;;;;;;;;;;;;;;5040590;28;1246;-73
2022/10/21 16:51:08;;;;;;;;;;;;;;;;;;5033663;28;1055;-73
2022/10/21 16:53:34;;;;;;;;;;;;;;;;;;5033202;28;1064;-74
2022/10/21 16:56:01;;;;;;;;;;;;;;;;;;5033624;28;1909;-73
2022/10/21 16:58:27;;;;;;;;;;;;;;;;;;5033306;28;1289;-72
2022/10/21 17:00:54;;;;;;;;;;;;;;;;;;5033805;28;1136;-72
2022/10/21 17:03:20;;;;;;;;;;;;;;;;;;5033073;28;965;-72
2022/10/21 17:05:49;;;;;;;;;;;;;;;;;;5033235;28;996;-72
2022/10/21 17:08:16;;;;;;;;;;;;;;;;;;5033460;28;1385;-71